sensor_id;sensor_type;location;lat;lon;timestamp;P1;durP1;ratioP1;P2;durP2;ratioP2
63555;SDS011;49700;48.072;7.800;2022-12-16T00:01:02;30.40;;;17.20;;
63555;SDS011;49700;48.072;7.800;2022-12-16T00:03:34;31.65;;;17.80;;
63555;SDS011;49700;48.072;7.800;2022-12-16T00:06:00;43.05;;;18.98;;
63555;SDS011;49700;48.072;7.800;2022-12-16T00:08:30;30.73;;;17.75;;
63555;SDS011;49700;48.072;7.800;2022-12-16T00:10:57;34.10;;;18.30;;
63555;SDS011;49700;48.072;7.800;2022-12-16T00:13:24;33.67;;;17.08;;
63555;SDS011;49700;48.072;7.800;2022-12-16T00:15:50;34.75;;;19.95;;
63555;SDS011;49700;48.072;7.800;2022-12-16T00:18:15;30.53;;;18.13;;
63555;SDS011;49700;48.072;7.800;2022-12-16T00:20:44;34.03;;;19.38;;
63555;SDS011;49700;48.072;7.800;2022-12-16T00:23:13;33.45;;;17.20;;
63555;SDS011;49700;48.072;7.800;2022-12-16T00:25:43;32.80;;;18.77;;
63555;SDS011;49700;48.072;7.800;2022-12-16T00:28:09;29.98;;;17.20;;
63555;SDS011;49700;48.072;7.800;2022-12-16T00:30:35;29.50;;;16.08;;
63555;SDS011;49700;48.072;7.800;2022-12-16T00:33:01;35.10;;;19.00;;
63555;SDS011;49700;48.072;7.800;2022-12-16T00:35:27;39.03;;;18.97;;
63555;SDS011;49700;48.072;7.800;2022-12-16T00:37:52;26.63;;;17.70;;
63555;SDS011;49700;48.072;7.800;2022-12-16T00:40:18;25.73;;;18.37;;
63555;SDS011;49700;48.072;7.800;2022-12-16T00:42:43;32.30;;;17.57;;
63555;SDS011;49700;48.072;7.800;2022-12-16T00:45:09;27.67;;;16.80;;
63555;SDS011;49700;48.072;7.800;2022-12-16T00:47:34;36.13;;;17.23;;
63555;SDS011;49700;48.072;7.800;2022-12-16T00:49:59;32.23;;;17.10;;
63555;SDS011;49700;48.072;7.800;2022-12-16T00:52:25;31.30;;;20.63;;
63555;SDS011;49700;48.072;7.800;2022-12-16T00:54:51;33.13;;;18.90;;
63555;SDS011;49700;48.072;7.800;2022-12-16T00:57:16;30.10;;;17.27;;
63555;SDS011;49700;48.072;7.800;2022-12-16T00:59:42;29.73;;;17.10;;
63555;SDS011;49700;48.072;7.800;2022-12-16T01:02:07;30.43;;;16.80;;
63555;SDS011;49700;48.072;7.800;2022-12-16T01:04:35;35.88;;;18.35;;
63555;SDS011;49700;48.072;7.800;2022-12-16T01:07:00;32.50;;;20.10;;
63555;SDS011;49700;48.072;7.800;2022-12-16T01:09:26;29.93;;;17.50;;
63555;SDS011;49700;48.072;7.800;2022-12-16T01:11:51;28.30;;;15.63;;
63555;SDS011;49700;48.072;7.800;2022-12-16T01:14:17;30.50;;;17.00;;
63555;SDS011;49700;48.072;7.800;2022-12-16T01:16:43;32.03;;;17.48;;
63555;SDS011;49700;48.072;7.800;2022-12-16T01:19:09;38.63;;;17.43;;
63555;SDS011;49700;48.072;7.800;2022-12-16T01:21:35;39.92;;;17.38;;
63555;SDS011;49700;48.072;7.800;2022-12-16T01:24:01;36.85;;;18.45;;
63555;SDS011;49700;48.072;7.800;2022-12-16T01:26:26;27.40;;;15.63;;
63555;SDS011;49700;48.072;7.800;2022-12-16T01:28:52;35.67;;;19.77;;
63555;SDS011;49700;48.072;7.800;2022-12-16T01:31:17;32.20;;;18.53;;
63555;SDS011;49700;48.072;7.800;2022-12-16T01:33:44;31.00;;;17.45;;
63555;SDS011;49700;48.072;7.800;2022-12-16T01:36:10;33.30;;;19.30;;
63555;SDS011;49700;48.072;7.800;2022-12-16T01:38:35;29.10;;;17.77;;
63555;SDS011;49700;48.072;7.800;2022-12-16T01:41:01;28.20;;;16.30;;
63555;SDS011;49700;48.072;7.800;2022-12-16T01:43:28;32.95;;;18.83;;
63555;SDS011;49700;48.072;7.800;2022-12-16T01:46:07;26.20;;;17.63;;
63555;SDS011;49700;48.072;7.800;2022-12-16T01:48:36;26.85;;;16.63;;
63555;SDS011;49700;48.072;7.800;2022-12-16T01:51:13;34.67;;;17.15;;
63555;SDS011;49700;48.072;7.800;2022-12-16T01:53:42;29.83;;;18.92;;
63555;SDS011;49700;48.072;7.800;2022-12-16T01:56:11;25.75;;;15.25;;
63555;SDS011;49700;48.072;7.800;2022-12-16T01:58:40;34.88;;;17.77;;
63555;SDS011;49700;48.072;7.800;2022-12-16T02:01:08;30.42;;;16.45;;
63555;SDS011;49700;48.072;7.800;2022-12-16T02:03:34;30.43;;;16.57;;
63555;SDS011;49700;48.072;7.800;2022-12-16T02:06:00;41.85;;;19.48;;
63555;SDS011;49700;48.072;7.800;2022-12-16T02:08:28;36.85;;;18.55;;
63555;SDS011;49700;48.072;7.800;2022-12-16T02:35:03;49.45;;;29.10;;
63555;SDS011;49700;48.072;7.800;2022-12-16T02:40:40;31.50;;;18.95;;
63555;SDS011;49700;48.072;7.800;2022-12-16T02:43:11;22.92;;;15.32;;
63555;SDS011;49700;48.072;7.800;2022-12-16T02:45:44;27.27;;;16.00;;
63555;SDS011;49700;48.072;7.800;2022-12-16T02:48:10;39.40;;;18.05;;
63555;SDS011;49700;48.072;7.800;2022-12-16T02:50:39;34.30;;;18.90;;
63555;SDS011;49700;48.072;7.800;2022-12-16T02:53:09;27.08;;;17.20;;
63555;SDS011;49700;48.072;7.800;2022-12-16T03:01:10;36.25;;;17.30;;
63555;SDS011;49700;48.072;7.800;2022-12-16T03:03:44;27.58;;;16.17;;
63555;SDS011;49700;48.072;7.800;2022-12-16T03:06:16;32.70;;;18.35;;
63555;SDS011;49700;48.072;7.800;2022-12-16T03:08:46;30.17;;;16.42;;
63555;SDS011;49700;48.072;7.800;2022-12-16T03:11:19;21.95;;;12.40;;
63555;SDS011;49700;48.072;7.800;2022-12-16T03:13:45;30.10;;;16.40;;
63555;SDS011;49700;48.072;7.800;2022-12-16T03:16:15;26.70;;;16.55;;
63555;SDS011;49700;48.072;7.800;2022-12-16T03:18:44;26.05;;;17.40;;
63555;SDS011;49700;48.072;7.800;2022-12-16T03:21:14;30.17;;;16.05;;
63555;SDS011;49700;48.072;7.800;2022-12-16T03:23:45;24.77;;;15.73;;
63555;SDS011;49700;48.072;7.800;2022-12-16T03:26:17;30.40;;;16.38;;
63555;SDS011;49700;48.072;7.800;2022-12-16T03:28:59;28.20;;;15.25;;
63555;SDS011;49700;48.072;7.800;2022-12-16T03:31:34;29.13;;;15.82;;
63555;SDS011;49700;48.072;7.800;2022-12-16T03:35:04;41.88;;;24.40;;
63555;SDS011;49700;48.072;7.800;2022-12-16T03:37:15;31.00;;;17.83;;
63555;SDS011;49700;48.072;7.800;2022-12-16T03:39:49;34.78;;;17.42;;
63555;SDS011;49700;48.072;7.800;2022-12-16T03:42:17;34.33;;;17.88;;
63555;SDS011;49700;48.072;7.800;2022-12-16T03:44:43;30.47;;;18.60;;
63555;SDS011;49700;48.072;7.800;2022-12-16T03:47:12;27.38;;;17.02;;
63555;SDS011;49700;48.072;7.800;2022-12-16T03:49:38;28.40;;;17.27;;
63555;SDS011;49700;48.072;7.800;2022-12-16T03:52:04;30.80;;;15.30;;
63555;SDS011;49700;48.072;7.800;2022-12-16T03:54:29;23.80;;;14.77;;
63555;SDS011;49700;48.072;7.800;2022-12-16T03:56:55;41.63;;;19.87;;
63555;SDS011;49700;48.072;7.800;2022-12-16T03:59:20;24.73;;;15.93;;
63555;SDS011;49700;48.072;7.800;2022-12-16T04:01:46;36.03;;;15.93;;
63555;SDS011;49700;48.072;7.800;2022-12-16T04:04:11;21.90;;;13.20;;
63555;SDS011;49700;48.072;7.800;2022-12-16T04:06:36;35.60;;;15.40;;
63555;SDS011;49700;48.072;7.800;2022-12-16T04:09:02;28.13;;;15.80;;
63555;SDS011;49700;48.072;7.800;2022-12-16T04:11:28;31.90;;;17.70;;
63555;SDS011;49700;48.072;7.800;2022-12-16T04:14:12;28.98;;;15.70;;
63555;SDS011;49700;48.072;7.800;2022-12-16T04:16:55;28.02;;;14.48;;
63555;SDS011;49700;48.072;7.800;2022-12-16T04:19:40;22.45;;;15.25;;
63555;SDS011;49700;48.072;7.800;2022-12-16T04:22:39;25.02;;;15.63;;
63555;SDS011;49700;48.072;7.800;2022-12-16T04:25:30;30.65;;;16.40;;
63555;SDS011;49700;48.072;7.800;2022-12-16T04:27:58;32.42;;;16.27;;
63555;SDS011;49700;48.072;7.800;2022-12-16T04:30:24;27.60;;;16.30;;
63555;SDS011;49700;48.072;7.800;2022-12-16T04:35:43;23.95;;;14.75;;
63555;SDS011;49700;48.072;7.800;2022-12-16T04:38:28;29.10;;;15.98;;
63555;SDS011;49700;48.072;7.800;2022-12-16T04:41:12;22.17;;;11.32;;
63555;SDS011;49700;48.072;7.800;2022-12-16T04:43:56;27.95;;;15.57;;
63555;SDS011;49700;48.072;7.800;2022-12-16T04:46:40;24.13;;;15.10;;
63555;SDS011;49700;48.072;7.800;2022-12-16T04:49:24;27.73;;;14.80;;
63555;SDS011;49700;48.072;7.800;2022-12-16T04:52:09;24.83;;;14.70;;
63555;SDS011;49700;48.072;7.800;2022-12-16T04:54:53;23.52;;;14.20;;
63555;SDS011;49700;48.072;7.800;2022-12-16T04:57:37;25.02;;;13.93;;
63555;SDS011;49700;48.072;7.800;2022-12-16T05:00:22;23.13;;;14.15;;
63555;SDS011;49700;48.072;7.800;2022-12-16T05:03:06;23.80;;;15.00;;
63555;SDS011;49700;48.072;7.800;2022-12-16T05:05:50;24.65;;;14.07;;
63555;SDS011;49700;48.072;7.800;2022-12-16T05:08:34;34.35;;;16.27;;
63555;SDS011;49700;48.072;7.800;2022-12-16T05:11:17;23.15;;;14.70;;
63555;SDS011;49700;48.072;7.800;2022-12-16T05:14:01;23.13;;;13.82;;
63555;SDS011;49700;48.072;7.800;2022-12-16T05:16:46;31.08;;;13.65;;
63555;SDS011;49700;48.072;7.800;2022-12-16T05:19:30;25.83;;;14.32;;
63555;SDS011;49700;48.072;7.800;2022-12-16T05:22:14;22.55;;;14.25;;
63555;SDS011;49700;48.072;7.800;2022-12-16T05:24:59;28.45;;;15.10;;
63555;SDS011;49700;48.072;7.800;2022-12-16T05:27:53;28.98;;;15.82;;
63555;SDS011;49700;48.072;7.800;2022-12-16T05:30:38;25.77;;;13.82;;
63555;SDS011;49700;48.072;7.800;2022-12-16T05:33:26;24.60;;;16.00;;
63555;SDS011;49700;48.072;7.800;2022-12-16T05:36:22;25.20;;;14.70;;
63555;SDS011;49700;48.072;7.800;2022-12-16T05:39:07;24.35;;;14.75;;
63555;SDS011;49700;48.072;7.800;2022-12-16T05:41:51;21.13;;;13.20;;
63555;SDS011;49700;48.072;7.800;2022-12-16T05:44:37;29.02;;;15.20;;
63555;SDS011;49700;48.072;7.800;2022-12-16T05:47:21;23.35;;;12.18;;
63555;SDS011;49700;48.072;7.800;2022-12-16T05:50:05;23.25;;;15.48;;
63555;SDS011;49700;48.072;7.800;2022-12-16T05:52:56;26.85;;;15.90;;
63555;SDS011;49700;48.072;7.800;2022-12-16T05:55:41;26.23;;;15.35;;
63555;SDS011;49700;48.072;7.800;2022-12-16T05:58:25;27.50;;;13.40;;
63555;SDS011;49700;48.072;7.800;2022-12-16T06:01:10;22.40;;;11.60;;
63555;SDS011;49700;48.072;7.800;2022-12-16T06:03:54;23.90;;;13.40;;
63555;SDS011;49700;48.072;7.800;2022-12-16T06:06:38;24.35;;;12.50;;
63555;SDS011;49700;48.072;7.800;2022-12-16T06:09:22;20.65;;;13.02;;
63555;SDS011;49700;48.072;7.800;2022-12-16T06:12:07;26.88;;;13.45;;
63555;SDS011;49700;48.072;7.800;2022-12-16T06:14:51;20.95;;;13.55;;
63555;SDS011;49700;48.072;7.800;2022-12-16T06:17:34;22.10;;;12.55;;
63555;SDS011;49700;48.072;7.800;2022-12-16T06:20:18;26.38;;;13.73;;
63555;SDS011;49700;48.072;7.800;2022-12-16T06:23:02;23.88;;;14.15;;
63555;SDS011;49700;48.072;7.800;2022-12-16T06:25:46;20.98;;;13.88;;
63555;SDS011;49700;48.072;7.800;2022-12-16T06:28:30;25.92;;;16.00;;
63555;SDS011;49700;48.072;7.800;2022-12-16T06:31:14;21.60;;;12.63;;
63555;SDS011;49700;48.072;7.800;2022-12-16T06:33:57;25.08;;;16.65;;
63555;SDS011;49700;48.072;7.800;2022-12-16T06:39:41;30.15;;;14.88;;
63555;SDS011;49700;48.072;7.800;2022-12-16T06:42:25;24.25;;;13.73;;
63555;SDS011;49700;48.072;7.800;2022-12-16T06:45:09;29.05;;;15.90;;
63555;SDS011;49700;48.072;7.800;2022-12-16T06:48:07;29.92;;;13.23;;
63555;SDS011;49700;48.072;7.800;2022-12-16T06:50:51;24.10;;;12.73;;
63555;SDS011;49700;48.072;7.800;2022-12-16T06:53:35;20.73;;;11.68;;
63555;SDS011;49700;48.072;7.800;2022-12-16T06:56:19;30.40;;;16.42;;
63555;SDS011;49700;48.072;7.800;2022-12-16T06:59:03;21.27;;;14.38;;
63555;SDS011;49700;48.072;7.800;2022-12-16T07:01:46;24.08;;;13.93;;
63555;SDS011;49700;48.072;7.800;2022-12-16T07:04:30;21.75;;;13.65;;
63555;SDS011;49700;48.072;7.800;2022-12-16T07:07:14;22.95;;;14.15;;
63555;SDS011;49700;48.072;7.800;2022-12-16T07:09:58;24.85;;;13.55;;
63555;SDS011;49700;48.072;7.800;2022-12-16T07:12:41;25.40;;;13.20;;
63555;SDS011;49700;48.072;7.800;2022-12-16T07:15:25;26.48;;;13.32;;
63555;SDS011;49700;48.072;7.800;2022-12-16T07:18:09;24.27;;;15.35;;
63555;SDS011;49700;48.072;7.800;2022-12-16T07:20:53;26.67;;;14.93;;
63555;SDS011;49700;48.072;7.800;2022-12-16T07:23:36;33.35;;;15.30;;
63555;SDS011;49700;48.072;7.800;2022-12-16T07:26:20;26.15;;;13.85;;
63555;SDS011;49700;48.072;7.800;2022-12-16T07:29:04;24.55;;;12.80;;
63555;SDS011;49700;48.072;7.800;2022-12-16T07:31:48;25.70;;;12.07;;
63555;SDS011;49700;48.072;7.800;2022-12-16T07:34:32;21.20;;;13.43;;
63555;SDS011;49700;48.072;7.800;2022-12-16T07:37:16;22.80;;;13.10;;
63555;SDS011;49700;48.072;7.800;2022-12-16T07:39:59;28.42;;;13.23;;
63555;SDS011;49700;48.072;7.800;2022-12-16T07:42:46;25.58;;;14.00;;
63555;SDS011;49700;48.072;7.800;2022-12-16T07:45:30;27.90;;;14.40;;
63555;SDS011;49700;48.072;7.800;2022-12-16T07:48:14;23.02;;;15.82;;
63555;SDS011;49700;48.072;7.800;2022-12-16T07:50:58;25.20;;;15.40;;
63555;SDS011;49700;48.072;7.800;2022-12-16T07:53:42;24.33;;;15.00;;
63555;SDS011;49700;48.072;7.800;2022-12-16T07:56:26;25.50;;;13.30;;
63555;SDS011;49700;48.072;7.800;2022-12-16T07:59:10;20.75;;;12.15;;
63555;SDS011;49700;48.072;7.800;2022-12-16T08:01:54;16.75;;;12.80;;
63555;SDS011;49700;48.072;7.800;2022-12-16T08:04:38;26.20;;;12.40;;
63555;SDS011;49700;48.072;7.800;2022-12-16T08:07:22;22.13;;;11.18;;
63555;SDS011;49700;48.072;7.800;2022-12-16T08:10:06;18.83;;;12.40;;
63555;SDS011;49700;48.072;7.800;2022-12-16T08:12:50;23.25;;;11.55;;
63555;SDS011;49700;48.072;7.800;2022-12-16T08:15:34;15.15;;;12.35;;
63555;SDS011;49700;48.072;7.800;2022-12-16T08:18:18;18.00;;;10.45;;
63555;SDS011;49700;48.072;7.800;2022-12-16T08:21:02;19.20;;;13.23;;
63555;SDS011;49700;48.072;7.800;2022-12-16T08:23:46;20.30;;;11.23;;
63555;SDS011;49700;48.072;7.800;2022-12-16T08:26:30;21.90;;;13.23;;
63555;SDS011;49700;48.072;7.800;2022-12-16T08:29:14;13.82;;;8.88;;
63555;SDS011;49700;48.072;7.800;2022-12-16T08:31:58;23.17;;;12.77;;
63555;SDS011;49700;48.072;7.800;2022-12-16T08:34:42;19.85;;;15.23;;
63555;SDS011;49700;48.072;7.800;2022-12-16T08:37:28;18.42;;;10.27;;
63555;SDS011;49700;48.072;7.800;2022-12-16T08:40:12;13.85;;;10.43;;
63555;SDS011;49700;48.072;7.800;2022-12-16T08:42:56;21.88;;;10.88;;
63555;SDS011;49700;48.072;7.800;2022-12-16T08:45:41;14.25;;;9.32;;
63555;SDS011;49700;48.072;7.800;2022-12-16T08:48:26;14.60;;;10.13;;
63555;SDS011;49700;48.072;7.800;2022-12-16T08:51:10;13.90;;;9.48;;
63555;SDS011;49700;48.072;7.800;2022-12-16T08:53:54;13.65;;;7.63;;
63555;SDS011;49700;48.072;7.800;2022-12-16T08:56:38;14.93;;;10.23;;
63555;SDS011;49700;48.072;7.800;2022-12-16T08:59:22;15.48;;;10.75;;
63555;SDS011;49700;48.072;7.800;2022-12-16T09:02:05;14.02;;;8.77;;
63555;SDS011;49700;48.072;7.800;2022-12-16T09:04:50;14.43;;;10.13;;
63555;SDS011;49700;48.072;7.800;2022-12-16T09:07:33;22.90;;;10.95;;
63555;SDS011;49700;48.072;7.800;2022-12-16T09:10:17;14.95;;;11.93;;
63555;SDS011;49700;48.072;7.800;2022-12-16T09:13:05;18.85;;;9.40;;
63555;SDS011;49700;48.072;7.800;2022-12-16T09:15:54;13.75;;;8.40;;
63555;SDS011;49700;48.072;7.800;2022-12-16T09:18:38;17.92;;;9.95;;
63555;SDS011;49700;48.072;7.800;2022-12-16T09:21:21;17.13;;;10.27;;
63555;SDS011;49700;48.072;7.800;2022-12-16T09:24:05;16.55;;;9.00;;
63555;SDS011;49700;48.072;7.800;2022-12-16T09:26:49;17.30;;;10.68;;
63555;SDS011;49700;48.072;7.800;2022-12-16T09:29:33;16.35;;;9.35;;
63555;SDS011;49700;48.072;7.800;2022-12-16T09:32:20;12.88;;;8.88;;
63555;SDS011;49700;48.072;7.800;2022-12-16T09:35:04;17.70;;;10.63;;
63555;SDS011;49700;48.072;7.800;2022-12-16T09:37:49;11.10;;;8.15;;
63555;SDS011;49700;48.072;7.800;2022-12-16T09:40:33;14.25;;;9.90;;
63555;SDS011;49700;48.072;7.800;2022-12-16T09:43:55;15.95;;;9.07;;
63555;SDS011;49700;48.072;7.800;2022-12-16T09:50:27;23.27;;;12.13;;
63555;SDS011;49700;48.072;7.800;2022-12-16T09:53:16;17.63;;;8.98;;
63555;SDS011;49700;48.072;7.800;2022-12-16T09:56:04;16.40;;;9.63;;
63555;SDS011;49700;48.072;7.800;2022-12-16T09:58:57;10.88;;;9.30;;
63555;SDS011;49700;48.072;7.800;2022-12-16T10:01:44;18.10;;;8.80;;
63555;SDS011;49700;48.072;7.800;2022-12-16T10:04:28;17.52;;;9.77;;
63555;SDS011;49700;48.072;7.800;2022-12-16T10:07:16;17.80;;;9.73;;
63555;SDS011;49700;48.072;7.800;2022-12-16T10:10:19;18.85;;;10.52;;
63555;SDS011;49700;48.072;7.800;2022-12-16T10:13:20;12.15;;;8.02;;
63555;SDS011;49700;48.072;7.800;2022-12-16T10:22:45;15.98;;;9.77;;
63555;SDS011;49700;48.072;7.800;2022-12-16T10:25:48;14.68;;;9.82;;
63555;SDS011;49700;48.072;7.800;2022-12-16T10:31:27;20.08;;;12.18;;
63555;SDS011;49700;48.072;7.800;2022-12-16T10:34:13;28.20;;;16.13;;
63555;SDS011;49700;48.072;7.800;2022-12-16T10:36:59;20.35;;;11.90;;
63555;SDS011;49700;48.072;7.800;2022-12-16T10:39:46;23.65;;;10.80;;
63555;SDS011;49700;48.072;7.800;2022-12-16T10:42:39;16.88;;;11.05;;
63555;SDS011;49700;48.072;7.800;2022-12-16T10:45:32;15.75;;;10.45;;
63555;SDS011;49700;48.072;7.800;2022-12-16T10:48:28;17.05;;;11.00;;
63555;SDS011;49700;48.072;7.800;2022-12-16T10:51:14;24.30;;;10.95;;
63555;SDS011;49700;48.072;7.800;2022-12-16T10:54:18;14.32;;;9.63;;
63555;SDS011;49700;48.072;7.800;2022-12-16T10:57:36;21.88;;;10.38;;
63555;SDS011;49700;48.072;7.800;2022-12-16T11:03:30;24.17;;;10.48;;
63555;SDS011;49700;48.072;7.800;2022-12-16T11:06:16;15.27;;;9.98;;
63555;SDS011;49700;48.072;7.800;2022-12-16T11:12:26;22.38;;;11.85;;
63555;SDS011;49700;48.072;7.800;2022-12-16T11:15:22;20.55;;;12.73;;
63555;SDS011;49700;48.072;7.800;2022-12-16T11:18:09;19.42;;;12.38;;
63555;SDS011;49700;48.072;7.800;2022-12-16T11:21:15;21.02;;;10.77;;
63555;SDS011;49700;48.072;7.800;2022-12-16T11:26:53;16.63;;;11.18;;
63555;SDS011;49700;48.072;7.800;2022-12-16T11:29:48;16.05;;;10.60;;
63555;SDS011;49700;48.072;7.800;2022-12-16T11:32:42;18.63;;;11.57;;
63555;SDS011;49700;48.072;7.800;2022-12-16T11:35:31;20.58;;;10.25;;
63555;SDS011;49700;48.072;7.800;2022-12-16T11:38:24;16.80;;;9.73;;
63555;SDS011;49700;48.072;7.800;2022-12-16T11:41:15;27.50;;;11.80;;
63555;SDS011;49700;48.072;7.800;2022-12-16T11:44:04;12.30;;;8.98;;
63555;SDS011;49700;48.072;7.800;2022-12-16T11:46:56;21.67;;;11.45;;
63555;SDS011;49700;48.072;7.800;2022-12-16T11:49:40;16.80;;;10.65;;
63555;SDS011;49700;48.072;7.800;2022-12-16T11:52:24;20.63;;;10.70;;
63555;SDS011;49700;48.072;7.800;2022-12-16T11:58:01;16.27;;;10.00;;
63555;SDS011;49700;48.072;7.800;2022-12-16T12:00:57;18.38;;;11.00;;
63555;SDS011;49700;48.072;7.800;2022-12-16T12:03:50;20.25;;;12.13;;
63555;SDS011;49700;48.072;7.800;2022-12-16T12:09:37;18.15;;;11.27;;
63555;SDS011;49700;48.072;7.800;2022-12-16T12:15:48;19.58;;;11.95;;
63555;SDS011;49700;48.072;7.800;2022-12-16T12:27:29;18.55;;;10.55;;
63555;SDS011;49700;48.072;7.800;2022-12-16T12:30:20;23.67;;;16.40;;
63555;SDS011;49700;48.072;7.800;2022-12-16T12:41:58;21.43;;;12.17;;
63555;SDS011;49700;48.072;7.800;2022-12-16T12:51:10;15.98;;;10.23;;
63555;SDS011;49700;48.072;7.800;2022-12-16T12:57:14;16.23;;;11.38;;
63555;SDS011;49700;48.072;7.800;2022-12-16T13:00:05;15.57;;;10.07;;
63555;SDS011;49700;48.072;7.800;2022-12-16T13:03:02;16.08;;;9.40;;
63555;SDS011;49700;48.072;7.800;2022-12-16T13:05:50;18.38;;;10.85;;
63555;SDS011;49700;48.072;7.800;2022-12-16T13:11:31;13.65;;;10.15;;
63555;SDS011;49700;48.072;7.800;2022-12-16T13:17:21;15.32;;;10.02;;
63555;SDS011;49700;48.072;7.800;2022-12-16T13:20:34;20.95;;;10.65;;
63555;SDS011;49700;48.072;7.800;2022-12-16T13:26:05;14.13;;;9.82;;
63555;SDS011;49700;48.072;7.800;2022-12-16T13:29:01;15.38;;;9.57;;
63555;SDS011;49700;48.072;7.800;2022-12-16T13:32:00;16.90;;;9.52;;
63555;SDS011;49700;48.072;7.800;2022-12-16T13:40:53;15.52;;;11.10;;
63555;SDS011;49700;48.072;7.800;2022-12-16T13:46:44;18.05;;;10.02;;
63555;SDS011;49700;48.072;7.800;2022-12-16T13:53:06;13.60;;;8.63;;
63555;SDS011;49700;48.072;7.800;2022-12-16T13:55:53;17.00;;;9.55;;
63555;SDS011;49700;48.072;7.800;2022-12-16T13:58:50;16.33;;;10.18;;
63555;SDS011;49700;48.072;7.800;2022-12-16T14:01:44;12.25;;;9.27;;
63555;SDS011;49700;48.072;7.800;2022-12-16T14:04:39;16.05;;;9.55;;
63555;SDS011;49700;48.072;7.800;2022-12-16T14:07:29;17.88;;;9.82;;
63555;SDS011;49700;48.072;7.800;2022-12-16T14:10:25;19.65;;;9.90;;
63555;SDS011;49700;48.072;7.800;2022-12-16T14:16:05;16.00;;;11.07;;
63555;SDS011;49700;48.072;7.800;2022-12-16T14:25:17;16.35;;;10.63;;
63555;SDS011;49700;48.072;7.800;2022-12-16T14:34:04;16.73;;;11.65;;
63555;SDS011;49700;48.072;7.800;2022-12-16T14:36:48;12.73;;;9.90;;
63555;SDS011;49700;48.072;7.800;2022-12-16T14:39:36;18.13;;;11.70;;
63555;SDS011;49700;48.072;7.800;2022-12-16T14:42:25;24.75;;;12.07;;
63555;SDS011;49700;48.072;7.800;2022-12-16T14:45:21;22.88;;;11.35;;
63555;SDS011;49700;48.072;7.800;2022-12-16T14:48:35;19.98;;;10.73;;
63555;SDS011;49700;48.072;7.800;2022-12-16T14:52:08;35.90;;;13.00;;
63555;SDS011;49700;48.072;7.800;2022-12-16T14:54:30;22.02;;;13.93;;
63555;SDS011;49700;48.072;7.800;2022-12-16T14:57:22;18.05;;;10.98;;
63555;SDS011;49700;48.072;7.800;2022-12-16T15:03:10;13.10;;;8.57;;
63555;SDS011;49700;48.072;7.800;2022-12-16T15:06:02;17.00;;;10.65;;
63555;SDS011;49700;48.072;7.800;2022-12-16T15:08:50;20.25;;;11.50;;
63555;SDS011;49700;48.072;7.800;2022-12-16T15:11:37;14.52;;;9.32;;
63555;SDS011;49700;48.072;7.800;2022-12-16T15:14:29;24.08;;;10.80;;
63555;SDS011;49700;48.072;7.800;2022-12-16T15:20:05;18.63;;;9.70;;
63555;SDS011;49700;48.072;7.800;2022-12-16T15:22:58;15.35;;;11.73;;
63555;SDS011;49700;48.072;7.800;2022-12-16T15:25:46;14.73;;;10.13;;
63555;SDS011;49700;48.072;7.800;2022-12-16T15:28:36;16.27;;;10.60;;
63555;SDS011;49700;48.072;7.800;2022-12-16T15:31:24;12.55;;;8.70;;
63555;SDS011;49700;48.072;7.800;2022-12-16T15:34:27;19.00;;;12.35;;
63555;SDS011;49700;48.072;7.800;2022-12-16T15:37:15;16.02;;;11.30;;
63555;SDS011;49700;48.072;7.800;2022-12-16T15:40:01;15.40;;;10.88;;
63555;SDS011;49700;48.072;7.800;2022-12-16T15:42:53;18.95;;;11.85;;
63555;SDS011;49700;48.072;7.800;2022-12-16T15:45:37;18.38;;;11.35;;
63555;SDS011;49700;48.072;7.800;2022-12-16T15:48:30;19.27;;;12.30;;
63555;SDS011;49700;48.072;7.800;2022-12-16T15:54:22;19.50;;;12.07;;
63555;SDS011;49700;48.072;7.800;2022-12-16T15:57:23;16.05;;;11.60;;
63555;SDS011;49700;48.072;7.800;2022-12-16T16:00:25;19.90;;;10.52;;
63555;SDS011;49700;48.072;7.800;2022-12-16T16:03:19;12.55;;;9.95;;
63555;SDS011;49700;48.072;7.800;2022-12-16T16:06:16;21.83;;;13.02;;
63555;SDS011;49700;48.072;7.800;2022-12-16T16:09:11;14.65;;;10.63;;
63555;SDS011;49700;48.072;7.800;2022-12-16T16:12:04;20.90;;;10.88;;
63555;SDS011;49700;48.072;7.800;2022-12-16T16:14:53;14.45;;;10.10;;
63555;SDS011;49700;48.072;7.800;2022-12-16T16:17:43;16.42;;;10.70;;
63555;SDS011;49700;48.072;7.800;2022-12-16T16:20:29;17.85;;;10.90;;
63555;SDS011;49700;48.072;7.800;2022-12-16T16:23:13;16.40;;;10.68;;
63555;SDS011;49700;48.072;7.800;2022-12-16T16:25:57;14.05;;;11.35;;
63555;SDS011;49700;48.072;7.800;2022-12-16T16:28:41;22.73;;;11.75;;
63555;SDS011;49700;48.072;7.800;2022-12-16T16:31:25;17.75;;;11.82;;
63555;SDS011;49700;48.072;7.800;2022-12-16T16:34:10;21.23;;;15.88;;
63555;SDS011;49700;48.072;7.800;2022-12-16T16:36:55;21.75;;;13.57;;
63555;SDS011;49700;48.072;7.800;2022-12-16T16:39:42;13.88;;;11.82;;
63555;SDS011;49700;48.072;7.800;2022-12-16T16:42:27;17.98;;;12.15;;
63555;SDS011;49700;48.072;7.800;2022-12-16T16:45:11;22.40;;;11.50;;
63555;SDS011;49700;48.072;7.800;2022-12-16T16:48:09;17.40;;;12.88;;
63555;SDS011;49700;48.072;7.800;2022-12-16T16:50:56;18.55;;;11.93;;
63555;SDS011;49700;48.072;7.800;2022-12-16T16:53:41;18.27;;;11.25;;
63555;SDS011;49700;48.072;7.800;2022-12-16T16:56:25;20.00;;;12.70;;
63555;SDS011;49700;48.072;7.800;2022-12-16T16:59:13;20.67;;;13.50;;
63555;SDS011;49700;48.072;7.800;2022-12-16T17:01:57;17.92;;;12.43;;
63555;SDS011;49700;48.072;7.800;2022-12-16T17:04:41;23.70;;;18.10;;
63555;SDS011;49700;48.072;7.800;2022-12-16T17:07:26;19.55;;;12.93;;
63555;SDS011;49700;48.072;7.800;2022-12-16T17:10:10;19.08;;;12.77;;
63555;SDS011;49700;48.072;7.800;2022-12-16T17:12:54;20.33;;;13.60;;
63555;SDS011;49700;48.072;7.800;2022-12-16T17:15:38;19.02;;;11.38;;
63555;SDS011;49700;48.072;7.800;2022-12-16T17:18:22;22.83;;;14.40;;
63555;SDS011;49700;48.072;7.800;2022-12-16T17:21:06;24.38;;;11.50;;
63555;SDS011;49700;48.072;7.800;2022-12-16T17:23:50;21.13;;;11.35;;
63555;SDS011;49700;48.072;7.800;2022-12-16T17:26:34;27.10;;;15.82;;
63555;SDS011;49700;48.072;7.800;2022-12-16T17:29:24;24.02;;;15.23;;
63555;SDS011;49700;48.072;7.800;2022-12-16T17:32:09;25.20;;;14.85;;
63555;SDS011;49700;48.072;7.800;2022-12-16T17:34:53;24.73;;;14.88;;
63555;SDS011;49700;48.072;7.800;2022-12-16T17:37:37;22.88;;;13.30;;
63555;SDS011;49700;48.072;7.800;2022-12-16T17:40:21;29.92;;;13.85;;
63555;SDS011;49700;48.072;7.800;2022-12-16T17:43:05;27.20;;;16.35;;
63555;SDS011;49700;48.072;7.800;2022-12-16T17:45:56;27.45;;;15.60;;
63555;SDS011;49700;48.072;7.800;2022-12-16T17:48:42;14.93;;;10.57;;
63555;SDS011;49700;48.072;7.800;2022-12-16T17:51:26;17.33;;;13.10;;
63555;SDS011;49700;48.072;7.800;2022-12-16T17:54:09;20.17;;;14.15;;
63555;SDS011;49700;48.072;7.800;2022-12-16T17:56:53;18.63;;;14.00;;
63555;SDS011;49700;48.072;7.800;2022-12-16T17:59:37;21.73;;;13.38;;
63555;SDS011;49700;48.072;7.800;2022-12-16T18:02:20;22.13;;;14.75;;
63555;SDS011;49700;48.072;7.800;2022-12-16T18:05:05;23.98;;;11.95;;
63555;SDS011;49700;48.072;7.800;2022-12-16T18:07:49;18.25;;;12.13;;
63555;SDS011;49700;48.072;7.800;2022-12-16T18:10:33;17.40;;;12.52;;
63555;SDS011;49700;48.072;7.800;2022-12-16T18:13:17;24.33;;;11.38;;
63555;SDS011;49700;48.072;7.800;2022-12-16T18:16:01;21.70;;;13.00;;